createdAt,value
2019-04-30T00:02:40.924Z,12.07
2019-04-30T00:07:46.211Z,12.63
2019-04-30T00:12:49.935Z,12.50
2019-04-30T00:18:01.838Z,13.70
2019-04-30T00:23:05.663Z,12.60
2019-04-30T00:28:16.004Z,14.37
2019-04-30T00:33:25.157Z,13.80
2019-04-30T00:38:29.631Z,14.60
2019-04-30T00:43:35.351Z,14.00
2019-04-30T00:48:50.812Z,15.10
2019-04-30T00:53:59.112Z,14.30
2019-04-30T00:59:10.427Z,13.60
2019-04-30T01:04:27.906Z,15.10
2019-04-30T01:09:30.724Z,14.30
2019-04-30T01:14:38.600Z,16.03
2019-04-30T01:19:45.963Z,15.50
2019-04-30T01:24:52.536Z,14.43
2019-04-30T01:29:58.483Z,14.73
2019-04-30T01:35:04.022Z,15.60
2019-04-30T01:40:13.674Z,14.50
2019-04-30T01:45:14.071Z,15.70
2019-04-30T01:50:19.356Z,15.70
2019-04-30T01:55:31.273Z,15.13
2019-04-30T02:00:36.598Z,16.77
2019-04-30T02:05:40.420Z,16.57
2019-04-30T02:10:44.101Z,17.10
2019-04-30T02:15:59.766Z,17.30
2019-04-30T02:21:06.410Z,16.90
2019-04-30T02:26:10.104Z,16.37
2019-04-30T02:31:13.703Z,15.80
2019-04-30T02:36:33.900Z,15.57
2019-04-30T02:41:41.124Z,16.03
2019-04-30T02:46:45.982Z,16.30
2019-04-30T02:51:53.887Z,16.83
2019-04-30T02:57:02.115Z,17.80
2019-04-30T03:02:11.527Z,20.77
2019-04-30T03:07:21.808Z,20.27
2019-04-30T03:12:25.603Z,19.57
2019-04-30T03:17:33.800Z,20.23
2019-04-30T03:22:39.370Z,18.43
2019-04-30T03:27:42.681Z,19.37
2019-04-30T03:32:56.059Z,19.07
2019-04-30T03:37:55.906Z,20.10
2019-04-30T03:43:02.984Z,18.30
2019-04-30T03:48:10.210Z,20.20
2019-04-30T03:53:13.399Z,21.87
2019-04-30T03:58:21.290Z,26.60
2019-04-30T04:03:29.150Z,24.77
2019-04-30T04:08:33.804Z,25.23
2019-04-30T04:13:43.570Z,22.60
2019-04-30T04:18:50.182Z,27.30
2019-04-30T04:24:00.236Z,26.00
2019-04-30T04:29:06.337Z,25.30
2019-04-30T04:34:19.720Z,25.80
2019-04-30T04:39:23.586Z,26.40
2019-04-30T04:44:29.499Z,25.90
2019-04-30T04:49:36.098Z,22.60
2019-04-30T04:54:40.044Z,25.50
2019-04-30T04:59:49.885Z,25.93
2019-04-30T05:04:54.581Z,25.90
2019-04-30T05:10:00.554Z,24.23
2019-04-30T05:15:05.180Z,25.10
2019-04-30T05:20:10.034Z,25.70
2019-04-30T05:25:13.971Z,23.50
2019-04-30T05:30:19.825Z,24.87
2019-04-30T05:35:28.411Z,24.73
2019-04-30T05:40:43.030Z,23.63
2019-04-30T05:45:49.523Z,23.53
2019-04-30T05:50:59.213Z,23.03
2019-04-30T05:56:09.455Z,24.87
2019-04-30T06:01:13.281Z,25.57
2019-04-30T06:06:22.335Z,22.30
2019-04-30T06:11:44.088Z,24.33
2019-04-30T06:16:51.702Z,24.70
2019-04-30T06:22:05.070Z,21.63
2019-04-30T06:27:03.647Z,23.30
2019-04-30T06:32:10.728Z,26.27
2019-04-30T06:37:19.424Z,25.63
2019-04-30T06:42:24.440Z,25.63
2019-04-30T06:47:34.562Z,23.60
2019-04-30T06:52:39.024Z,25.97
2019-04-30T06:57:42.808Z,24.63
2019-04-30T07:02:49.425Z,27.83
2019-04-30T07:08:12.089Z,27.20
2019-04-30T07:13:23.396Z,26.43
2019-04-30T07:18:28.788Z,27.60
2019-04-30T07:23:32.269Z,27.83
2019-04-30T07:28:44.660Z,26.40
2019-04-30T07:33:43.810Z,28.40
2019-04-30T07:38:56.163Z,27.80
2019-04-30T07:43:59.350Z,28.10
2019-04-30T07:49:05.849Z,31.67
2019-04-30T07:54:09.564Z,33.77
2019-04-30T07:59:15.880Z,37.70
2019-04-30T08:04:29.340Z,35.80
2019-04-30T08:09:39.671Z,35.63
2019-04-30T08:14:44.474Z,35.00
2019-04-30T08:19:48.943Z,37.90
2019-04-30T08:24:58.678Z,33.37
2019-04-30T08:30:02.459Z,31.57
2019-04-30T08:35:11.594Z,34.37
2019-04-30T08:40:19.036Z,34.53
2019-04-30T08:45:23.111Z,35.00
2019-04-30T08:50:26.804Z,31.07
2019-04-30T08:55:33.558Z,33.60
2019-04-30T09:00:46.033Z,31.40
2019-04-30T09:05:52.603Z,32.93
2019-04-30T09:10:56.229Z,30.90
2019-04-30T09:15:59.845Z,29.03
2019-04-30T09:21:06.471Z,27.70
2019-04-30T09:26:12.011Z,26.40
2019-04-30T09:31:19.861Z,26.33
2019-04-30T09:36:23.529Z,24.77
2019-04-30T09:41:28.790Z,23.73
2019-04-30T09:46:35.537Z,24.17
2019-04-30T09:51:39.788Z,21.93
2019-04-30T09:56:43.881Z,18.00
2019-04-30T10:01:47.630Z,18.37
2019-04-30T10:06:54.696Z,19.87
2019-04-30T10:12:09.689Z,20.17
2019-04-30T10:17:22.486Z,19.17
2019-04-30T10:22:26.021Z,17.80
2019-04-30T10:27:29.786Z,16.47
2019-04-30T10:32:37.999Z,17.50
2019-04-30T10:37:41.675Z,17.90
2019-04-30T10:42:51.310Z,16.90
2019-04-30T10:47:56.927Z,16.40
2019-04-30T10:53:00.614Z,17.57
2019-04-30T10:58:09.527Z,18.77
2019-04-30T11:03:22.777Z,17.20
2019-04-30T11:08:29.039Z,18.13
2019-04-30T11:13:34.366Z,16.73
2019-04-30T11:18:43.039Z,16.30
2019-04-30T11:23:49.411Z,16.77
2019-04-30T11:28:53.575Z,16.60
2019-04-30T11:34:07.341Z,16.90
2019-04-30T11:39:12.684Z,17.73
2019-04-30T11:44:28.489Z,18.67
2019-04-30T11:49:27.574Z,18.53
2019-04-30T11:54:35.572Z,18.93
2019-04-30T11:59:46.003Z,18.30
2019-04-30T12:04:49.726Z,18.00
2019-04-30T12:09:59.561Z,18.50
2019-04-30T12:15:09.288Z,18.53
2019-04-30T12:20:12.839Z,16.77
2019-04-30T12:25:18.568Z,14.30
2019-04-30T12:30:22.559Z,13.30
2019-04-30T12:35:28.748Z,12.80
2019-04-30T12:40:32.552Z,10.63
2019-04-30T12:45:36.219Z,10.13
2019-04-30T12:50:50.191Z,10.13
2019-04-30T12:56:13.726Z,10.93
2019-04-30T13:01:17.663Z,11.27
2019-04-30T13:06:25.021Z,9.90
2019-04-30T13:11:30.805Z,10.43
2019-04-30T13:16:34.357Z,10.00
2019-04-30T13:21:39.518Z,10.60
2019-04-30T13:26:46.208Z,10.07
2019-04-30T13:31:58.963Z,8.33
2019-04-30T13:37:05.196Z,8.80
2019-04-30T13:42:17.632Z,9.10
2019-04-30T13:47:19.167Z,9.23
2019-04-30T13:52:25.814Z,9.60
2019-04-30T13:57:29.414Z,9.63
2019-04-30T14:02:34.671Z,9.90
2019-04-30T14:07:42.656Z,10.50
2019-04-30T14:12:48.505Z,10.60
2019-04-30T14:17:52.298Z,11.53
2019-04-30T14:23:08.513Z,11.10
2019-04-30T14:28:22.074Z,10.90
2019-04-30T14:33:29.370Z,9.07
2019-04-30T14:38:34.655Z,11.20
2019-04-30T14:43:42.443Z,11.90
2019-04-30T14:48:51.260Z,12.50
2019-04-30T14:54:05.583Z,16.10
2019-04-30T14:59:28.973Z,15.13
2019-04-30T15:04:33.973Z,14.80
2019-04-30T15:09:37.759Z,14.90
2019-04-30T15:14:43.076Z,14.40
2019-04-30T15:19:49.333Z,14.40
2019-04-30T15:24:59.239Z,14.27
2019-04-30T15:30:08.719Z,16.17
2019-04-30T15:35:12.581Z,14.13
2019-04-30T15:40:18.894Z,17.83
2019-04-30T15:45:22.770Z,17.80
2019-04-30T15:50:32.288Z,17.00
2019-04-30T15:55:35.915Z,17.43
2019-04-30T16:00:51.561Z,16.47
2019-04-30T16:05:56.454Z,16.93
2019-04-30T16:11:13.835Z,15.50
2019-04-30T16:16:19.205Z,18.40
2019-04-30T16:21:25.909Z,19.17
2019-04-30T16:26:31.165Z,19.37
2019-04-30T16:31:39.143Z,20.10
2019-04-30T16:36:43.031Z,19.40
2019-04-30T16:41:46.724Z,18.60
2019-04-30T16:46:50.347Z,17.40
2019-04-30T16:51:54.242Z,17.93
2019-04-30T16:57:04.198Z,17.93
2019-04-30T17:02:13.074Z,16.70
2019-04-30T17:07:30.495Z,15.20
2019-04-30T17:12:38.725Z,15.80
2019-04-30T17:17:45.723Z,15.80
2019-04-30T17:22:49.722Z,15.43
2019-04-30T17:27:55.706Z,14.70
2019-04-30T17:33:04.982Z,14.30
2019-04-30T17:38:08.760Z,14.60
2019-04-30T17:43:12.391Z,14.20
2019-04-30T17:48:17.583Z,15.00
2019-04-30T17:53:21.290Z,15.10
2019-04-30T17:58:29.460Z,14.03
2019-04-30T18:03:34.370Z,15.70
2019-04-30T18:08:37.965Z,15.83
2019-04-30T18:13:44.439Z,15.47
2019-04-30T18:18:51.206Z,15.20
2019-04-30T18:24:14.395Z,15.60
2019-04-30T18:29:18.023Z,16.97
2019-04-30T18:34:32.095Z,15.50
2019-04-30T18:39:37.319Z,17.30
2019-04-30T18:44:45.728Z,16.87
2019-04-30T18:49:49.645Z,17.10
2019-04-30T18:54:53.505Z,17.10
2019-04-30T19:00:01.691Z,16.93
2019-04-30T19:05:10.965Z,17.10
2019-04-30T19:10:35.704Z,15.87
2019-04-30T19:16:22.058Z,16.93
2019-04-30T19:21:04.779Z,16.80
2019-04-30T19:26:11.407Z,16.80
2019-04-30T19:31:19.928Z,16.70
2019-04-30T19:36:34.902Z,16.93
2019-04-30T19:41:30.570Z,16.43
2019-04-30T19:46:41.926Z,16.07
2019-04-30T19:51:46.412Z,18.83
2019-04-30T19:56:53.196Z,17.97
2019-04-30T20:01:56.825Z,20.20
2019-04-30T20:07:02.514Z,21.77
2019-04-30T20:12:06.144Z,20.67
2019-04-30T20:17:13.213Z,21.60
2019-04-30T20:22:19.423Z,21.43
2019-04-30T20:27:32.018Z,19.20
2019-04-30T20:32:38.135Z,18.30
2019-04-30T20:38:05.745Z,19.20
2019-04-30T20:43:09.522Z,19.37
2019-04-30T20:48:13.108Z,20.10
2019-04-30T20:53:19.764Z,24.33
2019-04-30T20:58:23.684Z,26.07
2019-04-30T21:03:29.387Z,27.43
2019-04-30T21:08:35.249Z,24.30
2019-04-30T21:13:41.499Z,21.33
2019-04-30T21:18:45.122Z,20.60
2019-04-30T21:23:50.395Z,19.77
2019-04-30T21:29:00.782Z,17.53
2019-04-30T21:34:20.730Z,18.23
2019-04-30T21:39:27.439Z,26.40
2019-04-30T21:44:35.419Z,23.37
2019-04-30T21:49:39.283Z,24.63
2019-04-30T21:54:48.702Z,24.43
2019-04-30T21:59:59.401Z,26.63
2019-04-30T22:05:03.396Z,28.43
2019-04-30T22:10:08.025Z,26.57
2019-04-30T22:15:13.366Z,25.27
2019-04-30T22:20:20.755Z,24.60
2019-04-30T22:25:26.355Z,28.43
2019-04-30T22:30:44.530Z,27.20
2019-04-30T22:35:52.752Z,28.60
2019-04-30T22:40:58.694Z,31.23
2019-04-30T22:46:07.097Z,33.20
2019-04-30T22:51:10.720Z,27.17
2019-04-30T22:56:14.588Z,24.30
2019-04-30T23:01:33.913Z,26.20
2019-04-30T23:06:37.928Z,22.70
2019-04-30T23:11:43.364Z,22.70
2019-04-30T23:16:47.147Z,24.90
2019-04-30T23:21:53.990Z,23.60
2019-04-30T23:26:57.856Z,23.37
2019-04-30T23:32:01.663Z,25.33
2019-04-30T23:37:09.573Z,24.07
2019-04-30T23:42:13.199Z,24.30
2019-04-30T23:47:18.544Z,24.83
2019-04-30T23:52:23.816Z,26.33
2019-04-30T23:57:27.482Z,22.23
